Overview Statistics Trail Chart Weather Telemetry Raw packets
 

This is the latest recevied weather packets stored in our database for station/object SV9TNF-52. If no packets are shown the sender has not sent any weather packets the latest 10 day(s).

<< 100 101 102 103 104 105 106 >>
Time Temp. Humidity Pressure Rain* Wind** Luminosity Snow
1787928691 30.56° C 59% 1019.6 hPa 0 mm 5.81 m/s, 12° - -
1787928385 31.11° C 58% 1019.6 hPa 0 mm 2.68 m/s, 249° - -
1787928084 30.56° C 59% 1019.6 hPa 0 mm 3.13 m/s, 21° - -
1787927785 30.56° C 60% 1019.6 hPa 0 mm 4.02 m/s, 74° - -
1787927484 30.56° C 58% 1019.6 hPa 0 mm 8.05 m/s, 5° - -
1787927184 31.67° C 57% 1019.6 hPa 0 mm 4.02 m/s, 319° - -
1787926884 31.67° C 59% 1019.6 hPa 0 mm 3.58 m/s, 23° - -
1787926584 31.67° C 59% 1019.6 hPa 0 mm 1.79 m/s, 330° - -
1787926284 30.56° C 60% 1019.6 hPa 0 mm 4.47 m/s, 100° - -
1787925984 31.67° C 59% 1019.6 hPa 0 mm 1.79 m/s, 301° - -
1787925684 31.11° C 60% 1019.6 hPa 0 mm 6.26 m/s, 13° - -
1787925384 30.56° C 61% 1019.6 hPa 0 mm 8.05 m/s, 18° - -
1787925083 30.56° C 60% 1019.6 hPa 0 mm 10.28 m/s, 54° - -
1787924783 31.11° C 59% 1019.6 hPa 0 mm 8.05 m/s, 8° - -
1787924483 31.67° C 58% 1019.6 hPa 0 mm 1.79 m/s, 18° - -
1787924183 31.11° C 59% 1020 hPa 0 mm 6.26 m/s, 14° - -
1787923883 30.56° C 59% 1020 hPa 0 mm 10.73 m/s, 34° - -
1787923583 31.11° C 58% 1020 hPa 0 mm 5.36 m/s, 272° - -
1787923283 31.11° C 58% 1020 hPa 0 mm 8.49 m/s, 353° - -
1787922983 30.56° C 61% 1020 hPa 0 mm 4.92 m/s, 337° - -
1787922683 31.67° C 56% 1020 hPa 0 mm 6.26 m/s, 25° - -
1787922383 31.67° C 56% 1020 hPa 0 mm 4.92 m/s, 8° - -
1787922083 31.67° C 55% 1020 hPa 0 mm 4.92 m/s, 359° - -
1787921782 32.22° C 55% 1020 hPa 0 mm 3.13 m/s, 50° - -
1787921482 31.67° C 55% 1020 hPa 0 mm 7.15 m/s, 43° - -

* Rain latest hour (hover to see other rain measurements)
** Current wind speed in m/s (hover to see current wind gust speed)